Data for 09/17/2009

Time Sea-Level Adjusted Pressure Absolute Pressure Temperature Relative Humidity Dew Point   
(mb) (inHg) (mb) (inHg) (C) (F) (%) (C) (F)
00:05 1022 30.18 852 25.16 20.2 68.3 33 3.4 38
00:10 1022 30.18 852 25.16 21 69.8 33 4.3 39.8
00:15 1022 30.18 852 25.16 20.3 68.5 38 5.5 41.9
00:20 1022 30.18 852 25.16 19.6 67.3 36 4.5 40
00:25 1022 30.18 852 25.16 18.6 65.4 38 3.9 39.1
00:30 1022 30.18 852 25.16 18 64.4 39 4.1 39.5
00:35 1022 30.18 852 25.16 18.2 64.7 39 4.2 39.5
00:40 1022 30.18 852 25.16 17.8 64 41 4.5 40
00:45 1022 30.18 852 25.16 17.5 63.4 41 4.2 39.5
00:50 1022 30.18 852 25.16 17.5 63.6 40 4 39.3
00:55 1022 30.18 852 25.16 17.7 63.8 41 4.5 40
01:00 1022 30.18 852 25.16 17.7 63.8 42 4.6 40.3
01:05 1022 30.18 852 25.16 17.6 63.7 42 4.5 40.2
01:10 1022 30.18 852 25.16 17.7 63.8 39 3.6 38.5
01:15 1022 30.18 852 25.16 17.7 63.8 39 3.5 38.3
01:20 1022 30.18 852 25.16 17.6 63.7 39 3.5 38.4
01:25 1022 30.18 852 25.16 17.8 64 38 3.4 38.2
01:30 1022 30.18 852 25.16 18.2 64.7 39 4 39.2
01:35 1022 30.18 852 25.16 18.2 64.7 38 3.8 38.9
01:40 1022 30.18 852 25.16 17.9 64.3 38 3.6 38.5
01:45 1022 30.18 852 25.16 18.1 64.6 37 3.5 38.3
01:50 1022 30.18 852 25.16 18.1 64.6 40 4.3 39.8
01:55 1022 30.18 852 25.16 18 64.5 37 3.2 37.8
02:00 1022 30.18 852 25.16 18 64.5 37 3.4 38.2
02:05 1022 30.18 852 25.16 17.7 63.9 39 3.8 38.9
02:10 1022 30.18 852 25.16 17.5 63.5 39 3.5 38.2
02:15 1022 30.18 852 25.16 17.6 63.7 38 3.4 38.2
02:20 1022 30.18 852 25.16 17.8 64.1 39 3.7 38.7
02:25 1022 30.18 852 25.16 17.7 63.8 39 3.8 38.8
02:30 1022 30.18 852 25.16 17.5 63.4 40 3.9 39
02:35 1022 30.18 852 25.16 17.1 62.8 41 4 39.2
02:40 1022 30.18 852 25.16 17.2 62.9 41 4 39.1
02:45 1023 30.21 852 25.16 17.5 63.4 41 4.1 39.3
02:50 1022 30.18 852 25.16 17.6 63.6 40 3.9 39
02:55 1022 30.18 852 25.16 17.5 63.6 40 3.9 39
03:00 1022 30.18 852 25.16 17.5 63.5 40 4 39.2
03:05 1022 30.18 852 25.16 17.6 63.7 39 3.7 38.7
03:10 1022 30.18 851 25.13 17.8 64 39 3.8 38.9
03:15 1022 30.18 852 25.16 17.6 63.7 42 4.6 40.3
03:20 1022 30.18 852 25.16 17.2 63 44 5 41
03:25 1022 30.18 852 25.16 17 62.6 43 4.4 39.9
03:30 1022 30.18 852 25.16 17.1 62.7 42 4.2 39.6
03:35 1022 30.18 852 25.16 17.3 63.1 42 4.4 39.9
03:40 1022 30.18 852 25.16 17.2 62.9 42 4.3 39.8
03:45 1022 30.18 852 25.16 17.1 62.7 43 4.6 40.2
03:50 1022 30.18 852 25.16 16.9 62.5 43 4.5 40.1
03:55 1022 30.18 852 25.16 17.1 62.7 44 4.9 40.9
04:00 1022 30.18 852 25.16 16.7 62.1 49 6.1 43
04:05 1022 30.18 852 25.16 15.6 60.1 50 5.4 41.8
04:10 1022 30.18 852 25.16 15.8 60.4 47 4.5 40.1
04:15 1022 30.18 851 25.13 16.2 61.1 55 7.3 45.1
04:20 1022 30.18 851 25.13 16 60.9 52 6.4 43.5
04:25 1022 30.18 852 25.16 16.3 61.4 54 7.2 44.9
04:30 1022 30.18 852 25.16 16.4 61.5 49 5.7 42.3
04:35 1022 30.18 852 25.16 16.3 61.3 48 5.3 41.6
04:40 1022 30.18 852 25.16 16.5 61.7 47 5.3 41.5
04:45 1022 30.18 852 25.16 16.6 61.9 51 6.5 43.7
04:50 1022 30.18 852 25.16 16.5 61.6 50 6.2 43.2
04:55 1022 30.18 852 25.16 16.1 60.9 53 6.6 43.9
05:00 1022 30.18 851 25.13 15.3 59.6 55 6.4 43.5
05:05 1022 30.18 851 25.13 14.5 58.1 59 6.7 44.1
05:10 1022 30.18 851 25.13 14.1 57.4 56 5.6 42.1
05:15 1022 30.18 851 25.13 15.1 59.3 53 5.7 42.2
05:20 1022 30.18 851 25.13 15.3 59.5 54 6.2 43.1
05:25 1022 30.18 851 25.13 15 59.1 54 6 42.8
05:30 1022 30.18 851 25.13 15 59 54 5.9 42.6
05:35 1022 30.18 851 25.13 15 59.1 55 6.1 43
05:40 1022 30.18 851 25.13 15.1 59.1 54 6 42.8
05:45 1022 30.18 851 25.13 15.2 59.4 54 6.1 42.9
05:50 1022 30.18 851 25.13 15.1 59.3 52 5.3 41.6
05:55 1022 30.18 851 25.13 15.2 59.4 51 5.3 41.5
06:00 1022 30.18 851 25.13 15.9 60.7 49 5.4 41.8
06:05 1022 30.18 851 25.13 16.1 60.9 50 5.7 42.3
06:10 1022 30.18 851 25.13 15.7 60.2 51 5.6 42.1
06:15 1022 30.18 851 25.13 16.1 60.9 49 5.3 41.6
06:20 1022 30.18 851 25.13 16.2 61.1 52 6.3 43.3
06:25 1022 30.18 851 25.13 15.6 60 53 6.2 43.2
06:30 1022 30.18 851 25.13 15.5 59.9 51 5.6 42
06:35 1022 30.18 851 25.13 16 60.7 51 5.9 42.5
06:40 1022 30.18 851 25.13 15.6 60.1 53 6.1 43
06:45 1022 30.18 851 25.13 15.2 59.3 53 5.8 42.4
06:50 1022 30.18 851 25.13 15.2 59.4 53 5.7 42.3
06:55 1022 30.18 851 25.13 15.1 59.2 54 5.9 42.7
07:00 1022 30.18 851 25.13 14.8 58.7 55 5.9 42.6
07:05 1022 30.18 851 25.13 14.6 58.3 54 5.6 42
07:10 1022 30.18 851 25.13 14.8 58.6 53 5.4 41.7
07:15 1022 30.18 851 25.13 15 58.9 53 5.4 41.8
07:20 1022 30.18 851 25.13 15.1 59.2 52 5.5 41.9
07:25 1022 30.18 851 25.13 15.4 59.6 52 5.5 41.9
07:30 1022 30.18 851 25.13 15.4 59.7 51 5.4 41.8
07:35 1022 30.18 851 25.13 15.4 59.6 52 5.7 42.3
07:40 1022 30.18 851 25.13 15.1 59.2 55 6.1 43.1
07:45 1022 30.18 851 25.13 14.9 58.8 53 5.6 42.1
07:50 1022 30.18 851 25.13 15.5 60 51 5.5 41.8
07:55 1022 30.18 851 25.13 15.9 60.6 49 5.3 41.5
08:00 1022 30.18 851 25.13 16.3 61.3 48 5.4 41.8
08:05 1022 30.18 851 25.13 16.6 61.8 47 5.3 41.5
08:10 1022 30.18 851 25.13 17 62.5 46 5.2 41.4
08:15 1022 30.18 851 25.13 17.4 63.3 46 5.7 42.3
08:20 1022 30.18 851 25.13 17.5 63.4 48 6.4 43.4
08:25 1022 30.18 851 25.13 17.6 63.6 46 6 42.9
08:30 1022 30.18 851 25.13 17.8 64.1 47 6.4 43.5
08:35 1022 30.18 851 25.13 17.9 64.2 49 7 44.6
08:40 1022 30.18 851 25.13 18.3 64.9 44 6 42.7
08:45 1022 30.18 851 25.13 18.6 65.4 44 6.1 43
08:50 1022 30.18 851 25.13 18.2 64.8 46 6.5 43.7
08:55 1022 30.18 851 25.13 18.3 64.9 46 6.5 43.7
09:00 1022 30.18 851 25.13 18.6 65.6 45 6.7 44
09:05 1022 30.18 851 25.13 18.8 65.9 48 7.7 45.8
09:10 1022 30.18 851 25.13 19.7 67.4 44 7.3 45.1
09:15 1022 30.18 851 25.13 20.1 68.1 41 6.6 43.8
09:20 1022 30.18 851 25.13 20.6 69 38 6.1 43
09:25 1022 30.18 851 25.13 21.1 69.9 39 6.8 44.2
09:30 1022 30.18 851 25.13 21.4 70.4 37 6.4 43.5
09:35 1022 30.18 851 25.13 21.3 70.3 38 6.8 44.2
09:40 1022 30.18 851 25.13 21.4 70.4 34 4.9 40.9
09:45 1022 30.18 851 25.13 21.8 71.2 36 6.3 43.3
09:50 1022 30.18 851 25.13 22.2 71.9 33 5.5 42
09:55 1022 30.18 851 25.13 22.3 72.2 34 5.8 42.4
10:00 1022 30.18 851 25.13 23.1 73.6 32 5.6 42.2
10:05 1022 30.18 851 25.13 23.4 74.2 31 5.6 42.1
10:10 1022 30.18 851 25.13 23.8 74.9 30 5.6 42.2
10:15 1022 30.18 851 25.13 23.8 74.8 33 6.7 44
10:20 1022 30.18 851 25.13 23.8 74.8 30 5.5 41.9
10:25 1022 30.18 851 25.13 23.9 75 31 5.8 42.5
10:30 1022 30.18 851 25.13 24.1 75.3 31 5.9 42.6
10:35 1022 30.18 851 25.13 24.8 76.7 29 6 42.8
10:40 1022 30.18 851 25.13 25.4 77.7 29 6.2 43.1
10:45 1022 30.18 851 25.13 25.3 77.5 30 6.5 43.8
10:50 1022 30.18 851 25.13 25 77 30 6.7 44
10:55 1022 30.18 851 25.13 25 77 29 5.9 42.7
11:00 1022 30.18 851 25.13 24.9 76.8 29 5.9 42.6
11:05 1022 30.18 851 25.13 25.5 77.9 27 5.5 41.9
11:10 1022 30.18 851 25.13 25.6 78.1 29 6.3 43.3
11:15 1022 30.18 851 25.13 26.2 79.1 29 6.9 44.5
11:20 1022 30.18 851 25.13 26.1 79.1 29 7.2 45
11:25 1022 30.18 851 25.13 26.3 79.4 29 7.2 44.9
11:30 1022 30.18 851 25.13 26.5 79.8 28 6.9 44.4
11:35 1022 30.18 851 25.13 26 78.9 29 7.1 44.8
11:40 1021 30.15 851 25.13 26.2 79.2 29 7.1 44.8
11:45 1021 30.15 851 25.13 25.9 78.6 29 6.9 44.4
11:50 1021 30.15 851 25.13 26.4 79.5 29 7 44.6
11:55 1021 30.15 851 25.13 26.6 79.8 28 6.7 44.1
12:00 1021 30.15 851 25.13 26.6 79.8 28 6.7 44.1
12:05 1021 30.15 850 25.1 26.4 79.5 27 6.3 43.3
12:10 1021 30.15 850 25.1 26.1 79.1 28 6.3 43.4
12:15 1021 30.15 850 25.1 26.3 79.3 26 5.6 42
12:20 1021 30.15 850 25.1 26.4 79.4 26 5.8 42.4
12:25 1021 30.15 850 25.1 26.9 80.3 27 6.6 43.9
12:30 1021 30.15 850 25.1 26.5 79.7 27 6.1 43
12:35 1021 30.15 850 25.1 26.7 80 26 5.8 42.4
12:40 1021 30.15 850 25.1 26.9 80.3 27 6.5 43.8
12:45 1021 30.15 850 25.1 27.9 82.3 23 5.2 41.4
12:50 1021 30.15 850 25.1 28.1 82.6 24 6 42.7
12:55 1021 30.15 850 25.1 27.7 81.9 23 5.2 41.4
13:00 1021 30.15 850 25.1 27.5 81.6 22 4.4 39.9
13:05 1021 30.15 850 25.1 28 82.4 22 4.5 40.1
13:10 1021 30.15 850 25.1 27.8 82.1 23 4.9 40.8
13:15 1021 30.15 850 25.1 28.2 82.7 23 5.1 41.2
13:20 1021 30.15 850 25.1 28.1 82.7 21 4.4 39.9
13:25 1021 30.15 850 25.1 28 82.4 22 4.5 40.1
13:30 1021 30.15 850 25.1 28.4 83.1 21 4.6 40.2
13:35 1021 30.15 850 25.1 28.2 82.8 21 4.3 39.7
13:40 1020 30.12 850 25.1 28 82.4 20 3.5 38.3
13:45 1020 30.12 850 25.1 29.2 84.6 20 4.6 40.2
13:50 1020 30.12 850 25.1 29.3 84.7 20 4.6 40.3
13:55 1020 30.12 850 25.1 28.6 83.5 20 3.5 38.4
14:00 1020 30.12 850 25.1 29.6 85.2 19 3.9 39
14:05 1020 30.12 849 25.07 29.6 85.3 19 4.2 39.6
14:10 1020 30.12 849 25.07 29.9 85.8 20 4.7 40.5
14:15 1020 30.12 849 25.07 30.3 86.5 20 4.9 40.9
14:20 1020 30.12 849 25.07 30.5 87 19 4.8 40.6
14:25 1020 30.12 849 25.07 30.5 86.9 19 4.7 40.4
14:30 1020 30.12 849 25.07 30.5 87 19 4.5 40.2
14:35 1020 30.12 849 25.07 30.9 87.6 18 4.5 40.1
14:40 1020 30.12 849 25.07 30.7 87.3 20 5.3 41.5
14:45 1020 30.12 849 25.07 31 87.7 17 3.8 38.9
14:50 1020 30.12 849 25.07 30.1 86.2 19 4.4 39.9
14:55 1020 30.12 849 25.07 30.6 87.1 18 4.1 39.3
15:00 1020 30.12 849 25.07 30.8 87.5 18 4.2 39.5
15:05 1020 30.12 849 25.07 30.4 86.8 20 5.2 41.4
15:10 1020 30.12 849 25.07 29.2 84.6 20 4.6 40.3
15:15 1020 30.12 849 25.07 30 85.9 19 3.9 39
15:20 1019 30.09 849 25.07 30 86 19 4.3 39.8
15:25 1019 30.09 849 25.07 29.6 85.3 18 3.2 37.8
15:30 1019 30.09 848 25.04 29.7 85.4 19 3.7 38.6
15:35 1019 30.09 848 25.04 30.5 86.8 17 2.7 36.8
15:40 1019 30.09 848 25.04 31.2 88.1 17 3.6 38.5
15:45 1019 30.09 848 25.04 30.4 86.7 18 4 39.2
15:50 1019 30.09 848 25.04 30.7 87.2 17 3.2 37.8
15:55 1019 30.09 848 25.04 31.2 88.1 19 5.4 41.8
16:00 1019 30.09 848 25.04 30.8 87.4 17 2.9 37.3
16:05 1019 30.09 848 25.04 30.3 86.6 17 2.7 36.8
16:10 1019 30.09 848 25.04 30 86 17 2.2 36
16:15 1019 30.09 848 25.04 30.2 86.4 16 1.7 35
16:20 1019 30.09 848 25.04 30.3 86.6 16 1.8 35.3
16:25 1019 30.09 848 25.04 30.4 86.7 16 2.1 35.8
16:30 1019 30.09 848 25.04 30.3 86.6 16 2.2 35.9
16:35 1019 30.09 848 25.04 30.9 87.5 15 1.7 35.1
16:40 1019 30.09 848 25.04 30.8 87.5 15 2 35.7
16:45 1019 30.09 848 25.04 30.1 86.2 17 2.7 36.8
16:50 1019 30.09 848 25.04 29.8 85.6 16 1.5 34.7
16:55 1019 30.09 848 25.04 29.4 85 17 2.2 36
17:00 1019 30.09 848 25.04 29.3 84.8 17 2.4 36.3
17:05 1019 30.09 848 25.04 29.6 85.2 17 2.4 36.3
17:10 1019 30.09 848 25.04 29.5 85.2 19 3.7 38.7
17:15 1019 30.09 848 25.04 29.6 85.3 18 3.1 37.6
17:20 1019 30.09 848 25.04 29.6 85.3 17 2.2 36
17:25 1019 30.09 848 25.04 29.9 85.8 17 2.7 36.8
17:30 1019 30.09 848 25.04 29.6 85.2 18 2.8 37.1
17:35 1019 30.09 848 25.04 28.9 84 18 2.5 36.5
17:40 1019 30.09 848 25.04 28.9 83.9 19 3.2 37.7
17:45 1019 30.09 848 25.04 28.7 83.6 19 3 37.4
17:50 1019 30.09 848 25.04 28.5 83.3 21 4.1 39.3
17:55 1019 30.09 848 25.04 28.4 83.1 19 2.8 37.1
18:00 1019 30.09 848 25.04 28.1 82.7 19 2.5 36.5
18:05 1019 30.09 848 25.04 28 82.4 19 2.5 36.5
18:10 1019 30.09 848 25.04 28.1 82.5 19 2.4 36.4
18:15 1019 30.09 848 25.04 28.3 83 20 3.3 37.9
18:20 1019 30.09 848 25.04 28.1 82.5 23 5.1 41.1
18:25 1019 30.09 848 25.04 28.1 82.5 22 4.4 40
18:30 1019 30.09 848 25.04 28.1 82.5 23 5.1 41.2
18:35 1019 30.09 848 25.04 27.9 82.2 21 4.1 39.3
18:40 1019 30.09 848 25.04 27.8 82 23 4.8 40.7
18:45 1019 30.09 848 25.04 27.8 82 24 5.6 42
18:50 1019 30.09 848 25.04 27.6 81.7 24 5.7 42.2
18:55 1019 30.09 848 25.04 27.5 81.5 27 7 44.6
19:00 1019 30.09 848 25.04 26.7 80 25 5.1 41.2
19:05 1019 30.09 848 25.04 26 78.8 24 4.2 39.5
19:10 1019 30.09 848 25.04 26.2 79.1 24 4.4 39.9
19:15 1019 30.09 848 25.04 26.3 79.4 22 3 37.3
19:20 1019 30.09 848 25.04 26.4 79.4 21 2.8 37
19:25 1019 30.09 848 25.04 26.5 79.7 21 2.8 37
19:30 1019 30.09 848 25.04 26.4 79.6 23 3.6 38.5
19:35 1019 30.09 848 25.04 26.4 79.4 22 3.5 38.3
19:40 1019 30.09 849 25.07 25.9 78.7 26 5 41
19:45 1019 30.09 848 25.04 25.5 77.8 25 4.3 39.8
19:50 1019 30.09 848 25.04 25.5 77.9 26 4.7 40.5
19:55 1019 30.09 848 25.04 25.4 77.8 25 4.5 40.1
20:00 1019 30.09 848 25.04 24.7 76.4 33 7.4 45.3
20:05 1019 30.09 848 25.04 24 75.1 28 4.7 40.5
20:10 1019 30.09 848 25.04 24.4 75.9 29 5.5 41.9
20:15 1019 30.09 848 25.04 23.8 74.8 31 6 42.9
20:20 1019 30.09 848 25.04 23.3 74 32 5.9 42.7
20:25 1019 30.09 848 25.04 23.2 73.8 34 6.6 43.9
20:30 1019 30.09 848 25.04 22.7 72.8 39 8.1 46.6
20:35 1019 30.09 849 25.07 21.4 70.4 37 6.4 43.5
20:40 1019 30.09 849 25.07 22 71.5 33 5.1 41.2
20:45 1019 30.09 849 25.07 22.6 72.6 38 7.6 45.7
20:50 1019 30.09 849 25.07 22.6 72.8 34 6.1 43
20:55 1020 30.12 849 25.07 22.1 71.7 37 6.8 44.3
21:00 1020 30.12 849 25.07 21.7 71 39 7.4 45.3
21:05 1020 30.12 849 25.07 21.6 71 35 5.9 42.5
21:10 1020 30.12 849 25.07 21.6 70.9 36 6.1 42.9
21:15 1020 30.12 849 25.07 21.3 70.4 39 6.9 44.3
21:20 1020 30.12 849 25.07 20.8 69.4 40 6.9 44.4
21:25 1020 30.12 849 25.07 20.5 68.9 39 6.4 43.5
21:30 1020 30.12 849 25.07 20.7 69.2 39 6.5 43.6
21:35 1020 30.12 849 25.07 20.6 69 41 7.1 44.8
21:40 1020 30.12 849 25.07 19.7 67.5 41 6.2 43.2
21:45 1020 30.12 849 25.07 19.9 67.8 37 5.1 41.1
21:50 1020 30.12 849 25.07 20.4 68.8 38 5.7 42.2
21:55 1021 30.15 850 25.1 20 68.1 45 7.9 46.2
22:00 1020 30.12 850 25.1 19.8 67.7 42 6.8 44.2
22:05 1021 30.15 850 25.1 20.2 68.4 43 7.2 45
22:10 1021 30.15 850 25.1 20.5 69 40 6.5 43.6
22:15 1021 30.15 850 25.1 20.8 69.4 41 7.1 44.8
22:20 1021 30.15 850 25.1 20.7 69.2 42 7.6 45.6
22:25 1021 30.15 850 25.1 20.4 68.8 39 6 42.8
22:30 1021 30.15 850 25.1 20.6 69.1 41 6.9 44.4
22:35 1021 30.15 850 25.1 20.6 69.1 40 6.6 43.8
22:40 1021 30.15 851 25.13 20.8 69.4 39 6.5 43.7
22:45 1021 30.15 851 25.13 20.7 69.3 39 6.2 43.2
22:50 1021 30.15 851 25.13 20.6 69.1 41 6.9 44.4
22:55 1021 30.15 851 25.13 20.4 68.7 39 6.2 43.1
23:00 1022 30.18 851 25.13 20.4 68.6 39 6.3 43.3
23:05 1022 30.18 851 25.13 20.2 68.3 40 6.1 43
23:10 1022 30.18 851 25.13 20.3 68.5 37 5.4 41.7
23:15 1022 30.18 851 25.13 20.3 68.6 38 5.7 42.2
23:20 1022 30.18 851 25.13 20.3 68.5 37 5.4 41.8
23:25 1022 30.18 851 25.13 20.2 68.3 39 5.9 42.6
23:30 1022 30.18 851 25.13 20 68 39 5.9 42.6
23:35 1022 30.18 851 25.13 19.9 67.8 40 5.9 42.6
23:40 1022 30.18 851 25.13 19.8 67.6 40 5.9 42.7
23:45 1022 30.18 851 25.13 19.7 67.5 40 5.9 42.6
23:50 1022 30.18 851 25.13 19.7 67.5 40 6.1 42.9
23:55 1022 30.18 851 25.13 19.3 66.8 42 6.3 43.3
24:00 1022 30.18 851 25.13 18.9 66 42 5.8 42.4